sensor_id;sensor_type;location;lat;lon;timestamp;P1;durP1;ratioP1;P2;durP2;ratioP2
7813;SDS011;3952;48.364;16.022;2022-10-13T00:02:03;7.13;;;6.63;;
7813;SDS011;3952;48.364;16.022;2022-10-13T00:04:30;7.63;;;6.93;;
7813;SDS011;3952;48.364;16.022;2022-10-13T00:06:57;8.50;;;6.77;;
7813;SDS011;3952;48.364;16.022;2022-10-13T00:09:24;7.40;;;6.80;;
7813;SDS011;3952;48.364;16.022;2022-10-13T00:11:53;6.40;;;6.00;;
7813;SDS011;3952;48.364;16.022;2022-10-13T00:14:22;9.13;;;6.30;;
7813;SDS011;3952;48.364;16.022;2022-10-13T00:16:49;9.87;;;6.33;;
7813;SDS011;3952;48.364;16.022;2022-10-13T00:19:16;6.77;;;6.33;;
7813;SDS011;3952;48.364;16.022;2022-10-13T00:21:44;6.90;;;6.50;;
7813;SDS011;3952;48.364;16.022;2022-10-13T00:24:11;7.10;;;6.50;;
7813;SDS011;3952;48.364;16.022;2022-10-13T00:26:38;7.93;;;7.13;;
7813;SDS011;3952;48.364;16.022;2022-10-13T00:29:07;10.40;;;7.17;;
7813;SDS011;3952;48.364;16.022;2022-10-13T00:31:40;7.60;;;7.00;;
7813;SDS011;3952;48.364;16.022;2022-10-13T00:34:08;9.00;;;7.57;;
7813;SDS011;3952;48.364;16.022;2022-10-13T00:36:35;7.83;;;7.23;;
7813;SDS011;3952;48.364;16.022;2022-10-13T00:39:02;9.67;;;7.13;;
7813;SDS011;3952;48.364;16.022;2022-10-13T00:41:29;8.77;;;7.00;;
7813;SDS011;3952;48.364;16.022;2022-10-13T00:43:57;7.67;;;6.97;;
7813;SDS011;3952;48.364;16.022;2022-10-13T00:46:28;8.90;;;8.00;;
7813;SDS011;3952;48.364;16.022;2022-10-13T00:48:58;8.97;;;8.00;;
7813;SDS011;3952;48.364;16.022;2022-10-13T00:51:28;8.33;;;7.53;;
7813;SDS011;3952;48.364;16.022;2022-10-13T00:53:57;9.23;;;7.60;;
7813;SDS011;3952;48.364;16.022;2022-10-13T00:56:26;9.83;;;7.43;;
7813;SDS011;3952;48.364;16.022;2022-10-13T00:58:54;8.00;;;6.60;;
7813;SDS011;3952;48.364;16.022;2022-10-13T01:01:23;7.77;;;7.07;;
7813;SDS011;3952;48.364;16.022;2022-10-13T01:03:51;7.33;;;6.77;;
7813;SDS011;3952;48.364;16.022;2022-10-13T01:06:18;8.13;;;7.33;;
7813;SDS011;3952;48.364;16.022;2022-10-13T01:08:46;7.73;;;6.80;;
7813;SDS011;3952;48.364;16.022;2022-10-13T01:11:19;7.40;;;6.90;;
7813;SDS011;3952;48.364;16.022;2022-10-13T01:14:19;7.63;;;7.03;;
7813;SDS011;3952;48.364;16.022;2022-10-13T01:16:56;6.97;;;6.37;;
7813;SDS011;3952;48.364;16.022;2022-10-13T01:19:42;6.63;;;6.07;;
7813;SDS011;3952;48.364;16.022;2022-10-13T01:22:35;7.00;;;6.30;;
7813;SDS011;3952;48.364;16.022;2022-10-13T01:25:13;9.13;;;7.30;;
7813;SDS011;3952;48.364;16.022;2022-10-13T01:28:00;7.97;;;7.47;;
7813;SDS011;3952;48.364;16.022;2022-10-13T01:30:41;12.93;;;7.83;;
7813;SDS011;3952;48.364;16.022;2022-10-13T01:33:18;10.43;;;6.80;;
7813;SDS011;3952;48.364;16.022;2022-10-13T01:35:58;7.97;;;7.27;;
7813;SDS011;3952;48.364;16.022;2022-10-13T01:38:36;8.40;;;7.70;;
7813;SDS011;3952;48.364;16.022;2022-10-13T01:41:10;7.53;;;6.83;;
7813;SDS011;3952;48.364;16.022;2022-10-13T01:43:43;9.23;;;7.27;;
7813;SDS011;3952;48.364;16.022;2022-10-13T01:46:16;8.23;;;7.43;;
7813;SDS011;3952;48.364;16.022;2022-10-13T01:48:48;7.87;;;7.23;;
7813;SDS011;3952;48.364;16.022;2022-10-13T01:51:19;10.80;;;7.33;;
7813;SDS011;3952;48.364;16.022;2022-10-13T01:53:48;7.73;;;7.13;;
7813;SDS011;3952;48.364;16.022;2022-10-13T01:56:16;9.90;;;7.30;;
7813;SDS011;3952;48.364;16.022;2022-10-13T01:58:44;9.07;;;7.80;;
7813;SDS011;3952;48.364;16.022;2022-10-13T02:01:24;10.73;;;7.80;;
7813;SDS011;3952;48.364;16.022;2022-10-13T02:04:13;8.20;;;7.60;;
7813;SDS011;3952;48.364;16.022;2022-10-13T02:06:50;11.47;;;8.63;;
7813;SDS011;3952;48.364;16.022;2022-10-13T02:09:22;9.50;;;8.53;;
7813;SDS011;3952;48.364;16.022;2022-10-13T02:11:54;13.40;;;8.43;;
7813;SDS011;3952;48.364;16.022;2022-10-13T02:14:26;8.33;;;7.53;;
7813;SDS011;3952;48.364;16.022;2022-10-13T02:16:57;9.13;;;8.27;;
7813;SDS011;3952;48.364;16.022;2022-10-13T02:19:28;9.93;;;8.13;;
7813;SDS011;3952;48.364;16.022;2022-10-13T02:21:58;8.83;;;7.93;;
7813;SDS011;3952;48.364;16.022;2022-10-13T02:24:25;8.93;;;8.23;;
7813;SDS011;3952;48.364;16.022;2022-10-13T02:26:53;10.97;;;8.20;;
7813;SDS011;3952;48.364;16.022;2022-10-13T02:29:21;11.60;;;8.30;;
7813;SDS011;3952;48.364;16.022;2022-10-13T02:31:48;8.87;;;8.00;;
7813;SDS011;3952;48.364;16.022;2022-10-13T02:34:19;11.77;;;7.47;;
7813;SDS011;3952;48.364;16.022;2022-10-13T02:36:46;9.60;;;8.60;;
7813;SDS011;3952;48.364;16.022;2022-10-13T02:39:14;8.77;;;7.87;;
7813;SDS011;3952;48.364;16.022;2022-10-13T02:41:42;8.33;;;7.67;;
7813;SDS011;3952;48.364;16.022;2022-10-13T02:44:09;8.03;;;7.30;;
7813;SDS011;3952;48.364;16.022;2022-10-13T02:46:36;8.43;;;7.63;;
7813;SDS011;3952;48.364;16.022;2022-10-13T02:49:03;8.60;;;7.60;;
7813;SDS011;3952;48.364;16.022;2022-10-13T02:51:32;10.67;;;7.53;;
7813;SDS011;3952;48.364;16.022;2022-10-13T02:54:00;8.50;;;7.63;;
7813;SDS011;3952;48.364;16.022;2022-10-13T02:56:27;9.47;;;7.77;;
7813;SDS011;3952;48.364;16.022;2022-10-13T02:58:54;10.53;;;7.47;;
7813;SDS011;3952;48.364;16.022;2022-10-13T03:01:21;8.83;;;7.50;;
7813;SDS011;3952;48.364;16.022;2022-10-13T03:03:48;8.30;;;7.50;;
7813;SDS011;3952;48.364;16.022;2022-10-13T03:06:15;8.83;;;7.50;;
7813;SDS011;3952;48.364;16.022;2022-10-13T03:08:44;7.90;;;7.13;;
7813;SDS011;3952;48.364;16.022;2022-10-13T03:11:11;9.07;;;7.83;;
7813;SDS011;3952;48.364;16.022;2022-10-13T03:13:38;8.53;;;7.70;;
7813;SDS011;3952;48.364;16.022;2022-10-13T03:16:06;8.37;;;7.67;;
7813;SDS011;3952;48.364;16.022;2022-10-13T03:18:33;18.53;;;10.87;;
7813;SDS011;3952;48.364;16.022;2022-10-13T03:21:01;12.87;;;9.70;;
7813;SDS011;3952;48.364;16.022;2022-10-13T03:23:29;11.13;;;9.30;;
7813;SDS011;3952;48.364;16.022;2022-10-13T03:25:58;10.20;;;8.87;;
7813;SDS011;3952;48.364;16.022;2022-10-13T03:28:25;10.70;;;9.60;;
7813;SDS011;3952;48.364;16.022;2022-10-13T03:30:58;9.70;;;8.90;;
7813;SDS011;3952;48.364;16.022;2022-10-13T03:33:26;11.70;;;9.17;;
7813;SDS011;3952;48.364;16.022;2022-10-13T03:35:56;10.40;;;9.07;;
7813;SDS011;3952;48.364;16.022;2022-10-13T03:38:25;9.73;;;8.77;;
7813;SDS011;3952;48.364;16.022;2022-10-13T03:40:53;12.83;;;9.03;;
7813;SDS011;3952;48.364;16.022;2022-10-13T03:43:22;9.97;;;8.97;;
7813;SDS011;3952;48.364;16.022;2022-10-13T03:45:56;10.60;;;9.10;;
7813;SDS011;3952;48.364;16.022;2022-10-13T03:48:24;11.37;;;8.93;;
7813;SDS011;3952;48.364;16.022;2022-10-13T03:50:51;9.70;;;8.10;;
7813;SDS011;3952;48.364;16.022;2022-10-13T03:53:19;15.20;;;9.67;;
7813;SDS011;3952;48.364;16.022;2022-10-13T03:55:48;10.17;;;8.57;;
7813;SDS011;3952;48.364;16.022;2022-10-13T03:58:16;9.33;;;8.43;;
7813;SDS011;3952;48.364;16.022;2022-10-13T04:00:44;10.13;;;8.80;;
7813;SDS011;3952;48.364;16.022;2022-10-13T04:03:12;11.73;;;9.07;;
7813;SDS011;3952;48.364;16.022;2022-10-13T04:05:39;9.60;;;8.70;;
7813;SDS011;3952;48.364;16.022;2022-10-13T04:08:06;9.90;;;8.90;;
7813;SDS011;3952;48.364;16.022;2022-10-13T04:10:34;9.93;;;9.13;;
7813;SDS011;3952;48.364;16.022;2022-10-13T04:13:01;11.00;;;8.90;;
7813;SDS011;3952;48.364;16.022;2022-10-13T04:15:28;10.67;;;8.80;;
7813;SDS011;3952;48.364;16.022;2022-10-13T04:17:57;11.00;;;8.40;;
7813;SDS011;3952;48.364;16.022;2022-10-13T04:20:24;11.43;;;10.13;;
7813;SDS011;3952;48.364;16.022;2022-10-13T04:22:52;10.67;;;9.00;;
7813;SDS011;3952;48.364;16.022;2022-10-13T04:25:19;11.87;;;9.23;;
7813;SDS011;3952;48.364;16.022;2022-10-13T04:27:46;15.67;;;9.40;;
7813;SDS011;3952;48.364;16.022;2022-10-13T04:30:14;11.13;;;10.07;;
7813;SDS011;3952;48.364;16.022;2022-10-13T04:32:41;9.93;;;8.93;;
7813;SDS011;3952;48.364;16.022;2022-10-13T04:35:10;13.80;;;9.83;;
7813;SDS011;3952;48.364;16.022;2022-10-13T04:37:37;11.93;;;9.07;;
7813;SDS011;3952;48.364;16.022;2022-10-13T04:40:05;10.20;;;8.70;;
7813;SDS011;3952;48.364;16.022;2022-10-13T04:42:33;12.47;;;9.27;;
7813;SDS011;3952;48.364;16.022;2022-10-13T04:45:00;11.50;;;9.03;;
7813;SDS011;3952;48.364;16.022;2022-10-13T04:47:27;10.47;;;9.47;;
7813;SDS011;3952;48.364;16.022;2022-10-13T04:49:55;12.40;;;9.33;;
7813;SDS011;3952;48.364;16.022;2022-10-13T04:52:23;10.80;;;9.13;;
7813;SDS011;3952;48.364;16.022;2022-10-13T04:54:50;10.03;;;9.17;;
7813;SDS011;3952;48.364;16.022;2022-10-13T04:57:17;10.53;;;9.00;;
7813;SDS011;3952;48.364;16.022;2022-10-13T04:59:45;10.97;;;9.10;;
7813;SDS011;3952;48.364;16.022;2022-10-13T05:02:12;10.47;;;9.47;;
7813;SDS011;3952;48.364;16.022;2022-10-13T05:04:39;9.60;;;8.87;;
7813;SDS011;3952;48.364;16.022;2022-10-13T05:07:07;10.90;;;9.50;;
7813;SDS011;3952;48.364;16.022;2022-10-13T05:09:35;12.70;;;9.60;;
7813;SDS011;3952;48.364;16.022;2022-10-13T05:12:03;10.00;;;9.00;;
7813;SDS011;3952;48.364;16.022;2022-10-13T05:14:31;14.60;;;9.53;;
7813;SDS011;3952;48.364;16.022;2022-10-13T05:16:59;9.30;;;8.50;;
7813;SDS011;3952;48.364;16.022;2022-10-13T05:19:26;10.23;;;9.53;;
7813;SDS011;3952;48.364;16.022;2022-10-13T05:21:53;9.63;;;8.40;;
7813;SDS011;3952;48.364;16.022;2022-10-13T05:24:21;11.27;;;9.20;;
7813;SDS011;3952;48.364;16.022;2022-10-13T05:26:56;14.73;;;9.73;;
7813;SDS011;3952;48.364;16.022;2022-10-13T05:29:23;17.47;;;8.43;;
7813;SDS011;3952;48.364;16.022;2022-10-13T05:31:51;10.23;;;9.33;;
7813;SDS011;3952;48.364;16.022;2022-10-13T05:34:18;9.80;;;8.97;;
7813;SDS011;3952;48.364;16.022;2022-10-13T05:36:45;10.30;;;9.37;;
7813;SDS011;3952;48.364;16.022;2022-10-13T05:39:12;10.60;;;9.60;;
7813;SDS011;3952;48.364;16.022;2022-10-13T05:41:39;11.63;;;9.63;;
7813;SDS011;3952;48.364;16.022;2022-10-13T05:44:08;11.17;;;10.20;;
7813;SDS011;3952;48.364;16.022;2022-10-13T05:46:35;10.90;;;9.70;;
7813;SDS011;3952;48.364;16.022;2022-10-13T05:49:02;10.30;;;9.50;;
7813;SDS011;3952;48.364;16.022;2022-10-13T05:51:31;12.20;;;10.37;;
7813;SDS011;3952;48.364;16.022;2022-10-13T05:54:03;19.40;;;10.20;;
7813;SDS011;3952;48.364;16.022;2022-10-13T05:56:36;12.07;;;10.60;;
7813;SDS011;3952;48.364;16.022;2022-10-13T05:59:08;13.67;;;9.87;;
7813;SDS011;3952;48.364;16.022;2022-10-13T06:01:40;10.47;;;9.63;;
7813;SDS011;3952;48.364;16.022;2022-10-13T06:04:10;14.57;;;10.40;;
7813;SDS011;3952;48.364;16.022;2022-10-13T06:06:40;12.07;;;9.93;;
7813;SDS011;3952;48.364;16.022;2022-10-13T06:09:07;11.30;;;10.33;;
7813;SDS011;3952;48.364;16.022;2022-10-13T06:11:35;12.07;;;10.80;;
7813;SDS011;3952;48.364;16.022;2022-10-13T06:14:02;14.07;;;11.33;;
7813;SDS011;3952;48.364;16.022;2022-10-13T06:16:31;11.93;;;10.10;;
7813;SDS011;3952;48.364;16.022;2022-10-13T06:19:00;11.97;;;10.53;;
7813;SDS011;3952;48.364;16.022;2022-10-13T06:21:27;11.07;;;9.97;;
7813;SDS011;3952;48.364;16.022;2022-10-13T06:23:55;13.77;;;10.40;;
7813;SDS011;3952;48.364;16.022;2022-10-13T06:26:22;12.13;;;10.43;;
7813;SDS011;3952;48.364;16.022;2022-10-13T06:28:49;11.17;;;10.03;;
7813;SDS011;3952;48.364;16.022;2022-10-13T06:31:16;14.20;;;10.60;;
7813;SDS011;3952;48.364;16.022;2022-10-13T06:33:45;13.47;;;9.67;;
7813;SDS011;3952;48.364;16.022;2022-10-13T06:36:13;12.37;;;9.40;;
7813;SDS011;3952;48.364;16.022;2022-10-13T06:38:40;11.23;;;10.10;;
7813;SDS011;3952;48.364;16.022;2022-10-13T06:41:07;13.07;;;10.57;;
7813;SDS011;3952;48.364;16.022;2022-10-13T06:43:35;10.73;;;9.67;;
7813;SDS011;3952;48.364;16.022;2022-10-13T06:46:02;12.47;;;10.43;;
7813;SDS011;3952;48.364;16.022;2022-10-13T06:48:29;11.70;;;10.33;;
7813;SDS011;3952;48.364;16.022;2022-10-13T06:51:01;11.17;;;10.03;;
7813;SDS011;3952;48.364;16.022;2022-10-13T06:53:29;10.37;;;9.67;;
7813;SDS011;3952;48.364;16.022;2022-10-13T06:55:56;12.17;;;10.23;;
7813;SDS011;3952;48.364;16.022;2022-10-13T06:58:24;11.13;;;10.03;;
7813;SDS011;3952;48.364;16.022;2022-10-13T07:00:52;15.13;;;10.93;;
7813;SDS011;3952;48.364;16.022;2022-10-13T07:03:20;15.03;;;10.87;;
7813;SDS011;3952;48.364;16.022;2022-10-13T07:05:48;11.33;;;10.10;;
7813;SDS011;3952;48.364;16.022;2022-10-13T07:08:16;13.90;;;10.80;;
7813;SDS011;3952;48.364;16.022;2022-10-13T07:10:44;14.70;;;11.13;;
7813;SDS011;3952;48.364;16.022;2022-10-13T07:13:11;11.13;;;10.13;;
7813;SDS011;3952;48.364;16.022;2022-10-13T07:15:39;10.67;;;9.60;;
7813;SDS011;3952;48.364;16.022;2022-10-13T07:18:06;11.33;;;10.10;;
7813;SDS011;3952;48.364;16.022;2022-10-13T07:20:33;10.90;;;10.07;;
7813;SDS011;3952;48.364;16.022;2022-10-13T07:23:01;10.23;;;9.43;;
7813;SDS011;3952;48.364;16.022;2022-10-13T07:25:30;10.00;;;8.97;;
7813;SDS011;3952;48.364;16.022;2022-10-13T07:27:57;16.53;;;10.57;;
7813;SDS011;3952;48.364;16.022;2022-10-13T07:30:24;16.73;;;11.07;;
7813;SDS011;3952;48.364;16.022;2022-10-13T07:32:52;12.17;;;10.10;;
7813;SDS011;3952;48.364;16.022;2022-10-13T07:35:19;10.57;;;9.53;;
7813;SDS011;3952;48.364;16.022;2022-10-13T07:37:51;11.87;;;9.73;;
7813;SDS011;3952;48.364;16.022;2022-10-13T07:40:18;11.07;;;10.10;;
7813;SDS011;3952;48.364;16.022;2022-10-13T07:42:46;11.57;;;10.13;;
7813;SDS011;3952;48.364;16.022;2022-10-13T07:45:14;12.20;;;10.83;;
7813;SDS011;3952;48.364;16.022;2022-10-13T07:47:41;13.87;;;9.87;;
7813;SDS011;3952;48.364;16.022;2022-10-13T07:50:09;12.83;;;9.60;;
7813;SDS011;3952;48.364;16.022;2022-10-13T07:52:36;12.63;;;9.50;;
7813;SDS011;3952;48.364;16.022;2022-10-13T07:55:03;12.77;;;9.57;;
7813;SDS011;3952;48.364;16.022;2022-10-13T07:57:31;10.47;;;9.50;;
7813;SDS011;3952;48.364;16.022;2022-10-13T08:00:00;13.77;;;9.77;;
7813;SDS011;3952;48.364;16.022;2022-10-13T08:02:27;11.00;;;9.63;;
7813;SDS011;3952;48.364;16.022;2022-10-13T08:04:55;11.60;;;9.13;;
7813;SDS011;3952;48.364;16.022;2022-10-13T08:07:23;13.43;;;9.23;;
7813;SDS011;3952;48.364;16.022;2022-10-13T08:09:50;10.67;;;9.63;;
7813;SDS011;3952;48.364;16.022;2022-10-13T08:12:17;14.13;;;9.07;;
7813;SDS011;3952;48.364;16.022;2022-10-13T08:14:44;15.77;;;10.20;;
7813;SDS011;3952;48.364;16.022;2022-10-13T08:17:13;10.40;;;9.40;;
7813;SDS011;3952;48.364;16.022;2022-10-13T08:19:40;16.87;;;9.27;;
7813;SDS011;3952;48.364;16.022;2022-10-13T08:22:08;10.10;;;8.93;;
7813;SDS011;3952;48.364;16.022;2022-10-13T08:24:36;13.27;;;10.27;;
7813;SDS011;3952;48.364;16.022;2022-10-13T08:27:03;10.17;;;9.30;;
7813;SDS011;3952;48.364;16.022;2022-10-13T08:29:30;10.30;;;9.30;;
7813;SDS011;3952;48.364;16.022;2022-10-13T08:31:57;10.57;;;9.47;;
7813;SDS011;3952;48.364;16.022;2022-10-13T08:34:26;10.40;;;9.40;;
7813;SDS011;3952;48.364;16.022;2022-10-13T08:36:53;12.50;;;9.73;;
7813;SDS011;3952;48.364;16.022;2022-10-13T08:39:21;11.43;;;9.40;;
7813;SDS011;3952;48.364;16.022;2022-10-13T08:41:49;10.07;;;9.13;;
7813;SDS011;3952;48.364;16.022;2022-10-13T08:44:21;12.50;;;10.00;;
7813;SDS011;3952;48.364;16.022;2022-10-13T08:46:53;13.00;;;9.07;;
7813;SDS011;3952;48.364;16.022;2022-10-13T08:49:26;11.17;;;10.03;;
7813;SDS011;3952;48.364;16.022;2022-10-13T08:51:55;13.17;;;9.57;;
7813;SDS011;3952;48.364;16.022;2022-10-13T08:54:24;10.17;;;9.27;;
7813;SDS011;3952;48.364;16.022;2022-10-13T08:56:52;9.13;;;8.27;;
7813;SDS011;3952;48.364;16.022;2022-10-13T08:59:19;10.00;;;9.03;;
7813;SDS011;3952;48.364;16.022;2022-10-13T09:01:46;10.03;;;9.13;;
7813;SDS011;3952;48.364;16.022;2022-10-13T09:07:09;13.57;;;10.37;;
7813;SDS011;3952;48.364;16.022;2022-10-13T09:09:39;14.10;;;9.23;;
7813;SDS011;3952;48.364;16.022;2022-10-13T09:12:09;11.30;;;9.27;;
7813;SDS011;3952;48.364;16.022;2022-10-13T09:14:38;14.87;;;9.70;;
7813;SDS011;3952;48.364;16.022;2022-10-13T09:17:13;9.43;;;8.73;;
7813;SDS011;3952;48.364;16.022;2022-10-13T09:19:44;12.00;;;10.33;;
7813;SDS011;3952;48.364;16.022;2022-10-13T09:22:25;11.77;;;10.10;;
7813;SDS011;3952;48.364;16.022;2022-10-13T09:25:15;11.50;;;10.07;;
7813;SDS011;3952;48.364;16.022;2022-10-13T09:27:45;11.40;;;9.97;;
7813;SDS011;3952;48.364;16.022;2022-10-13T09:30:26;10.80;;;9.87;;
7813;SDS011;3952;48.364;16.022;2022-10-13T09:33:04;11.40;;;10.20;;
7813;SDS011;3952;48.364;16.022;2022-10-13T09:38:44;11.40;;;10.17;;
7813;SDS011;3952;48.364;16.022;2022-10-13T09:41:31;15.07;;;9.77;;
7813;SDS011;3952;48.364;16.022;2022-10-13T09:44:02;9.90;;;9.10;;
7813;SDS011;3952;48.364;16.022;2022-10-13T09:46:37;9.53;;;8.73;;
7813;SDS011;3952;48.364;16.022;2022-10-13T09:49:22;12.07;;;10.10;;
7813;SDS011;3952;48.364;16.022;2022-10-13T09:51:59;12.20;;;10.07;;
7813;SDS011;3952;48.364;16.022;2022-10-13T09:54:35;9.60;;;8.80;;
7813;SDS011;3952;48.364;16.022;2022-10-13T09:57:08;10.87;;;9.77;;
7813;SDS011;3952;48.364;16.022;2022-10-13T09:59:42;13.33;;;9.60;;
7813;SDS011;3952;48.364;16.022;2022-10-13T10:02:16;10.23;;;9.27;;
7813;SDS011;3952;48.364;16.022;2022-10-13T10:04:48;15.23;;;9.77;;
7813;SDS011;3952;48.364;16.022;2022-10-13T10:07:19;13.07;;;10.47;;
7813;SDS011;3952;48.364;16.022;2022-10-13T10:09:53;11.57;;;9.63;;
7813;SDS011;3952;48.364;16.022;2022-10-13T10:12:25;12.47;;;9.17;;
7813;SDS011;3952;48.364;16.022;2022-10-13T10:14:55;10.67;;;9.63;;
7813;SDS011;3952;48.364;16.022;2022-10-13T10:17:24;23.83;;;10.33;;
7813;SDS011;3952;48.364;16.022;2022-10-13T10:20:01;16.30;;;10.03;;
7813;SDS011;3952;48.364;16.022;2022-10-13T10:22:45;20.00;;;10.53;;
7813;SDS011;3952;48.364;16.022;2022-10-13T10:25:24;12.40;;;10.17;;
7813;SDS011;3952;48.364;16.022;2022-10-13T10:28:17;11.60;;;10.50;;
7813;SDS011;3952;48.364;16.022;2022-10-13T10:31:00;13.20;;;10.87;;
7813;SDS011;3952;48.364;16.022;2022-10-13T10:33:37;15.93;;;10.97;;
7813;SDS011;3952;48.364;16.022;2022-10-13T10:36:11;15.00;;;11.53;;
7813;SDS011;3952;48.364;16.022;2022-10-13T10:38:43;16.07;;;11.40;;
7813;SDS011;3952;48.364;16.022;2022-10-13T10:41:20;14.13;;;10.87;;
7813;SDS011;3952;48.364;16.022;2022-10-13T10:44:01;14.97;;;11.23;;
7813;SDS011;3952;48.364;16.022;2022-10-13T10:46:35;14.17;;;11.13;;
7813;SDS011;3952;48.364;16.022;2022-10-13T10:49:10;14.13;;;11.03;;
7813;SDS011;3952;48.364;16.022;2022-10-13T10:51:40;14.87;;;11.23;;
7813;SDS011;3952;48.364;16.022;2022-10-13T10:54:15;17.67;;;11.47;;
7813;SDS011;3952;48.364;16.022;2022-10-13T10:56:52;17.47;;;11.90;;
7813;SDS011;3952;48.364;16.022;2022-10-13T10:59:28;19.53;;;12.70;;
7813;SDS011;3952;48.364;16.022;2022-10-13T11:02:11;21.60;;;11.90;;
7813;SDS011;3952;48.364;16.022;2022-10-13T11:04:49;17.47;;;12.60;;
7813;SDS011;3952;48.364;16.022;2022-10-13T11:10:16;20.87;;;13.93;;
7813;SDS011;3952;48.364;16.022;2022-10-13T11:15:44;20.27;;;13.50;;
7813;SDS011;3952;48.364;16.022;2022-10-13T11:21:16;24.27;;;13.90;;
7813;SDS011;3952;48.364;16.022;2022-10-13T11:23:44;18.30;;;13.63;;
7813;SDS011;3952;48.364;16.022;2022-10-13T11:29:18;16.10;;;13.47;;
7813;SDS011;3952;48.364;16.022;2022-10-13T11:35:20;18.30;;;12.93;;
7813;SDS011;3952;48.364;16.022;2022-10-13T11:40:56;17.33;;;14.00;;
7813;SDS011;3952;48.364;16.022;2022-10-13T11:43:39;25.00;;;16.00;;
7813;SDS011;3952;48.364;16.022;2022-10-13T11:46:23;26.03;;;16.77;;
7813;SDS011;3952;48.364;16.022;2022-10-13T11:55:00;30.97;;;17.87;;
7813;SDS011;3952;48.364;16.022;2022-10-13T11:57:30;25.63;;;17.17;;
7813;SDS011;3952;48.364;16.022;2022-10-13T11:59:58;30.80;;;18.23;;
7813;SDS011;3952;48.364;16.022;2022-10-13T12:02:25;30.50;;;18.60;;
7813;SDS011;3952;48.364;16.022;2022-10-13T12:05:02;26.83;;;17.50;;
7813;SDS011;3952;48.364;16.022;2022-10-13T12:07:33;27.77;;;17.43;;
7813;SDS011;3952;48.364;16.022;2022-10-13T12:10:04;28.47;;;17.80;;
7813;SDS011;3952;48.364;16.022;2022-10-13T12:12:44;28.20;;;18.60;;
7813;SDS011;3952;48.364;16.022;2022-10-13T12:15:30;36.53;;;19.50;;
7813;SDS011;3952;48.364;16.022;2022-10-13T12:18:00;32.50;;;18.73;;
7813;SDS011;3952;48.364;16.022;2022-10-13T12:20:31;31.17;;;19.93;;
7813;SDS011;3952;48.364;16.022;2022-10-13T12:22:59;27.37;;;18.97;;
7813;SDS011;3952;48.364;16.022;2022-10-13T12:25:27;27.20;;;18.53;;
7813;SDS011;3952;48.364;16.022;2022-10-13T12:28:02;31.77;;;19.50;;
7813;SDS011;3952;48.364;16.022;2022-10-13T12:30:31;32.80;;;19.40;;
7813;SDS011;3952;48.364;16.022;2022-10-13T12:33:00;31.60;;;19.17;;
7813;SDS011;3952;48.364;16.022;2022-10-13T12:35:31;31.20;;;19.03;;
7813;SDS011;3952;48.364;16.022;2022-10-13T12:38:01;34.57;;;19.13;;
7813;SDS011;3952;48.364;16.022;2022-10-13T12:40:41;20.90;;;16.37;;
7813;SDS011;3952;48.364;16.022;2022-10-13T12:43:08;21.33;;;16.83;;
7813;SDS011;3952;48.364;16.022;2022-10-13T12:45:42;20.13;;;15.77;;
7813;SDS011;3952;48.364;16.022;2022-10-13T12:48:28;22.23;;;16.03;;
7813;SDS011;3952;48.364;16.022;2022-10-13T12:51:10;21.33;;;16.40;;
7813;SDS011;3952;48.364;16.022;2022-10-13T12:53:42;26.17;;;17.20;;
7813;SDS011;3952;48.364;16.022;2022-10-13T12:56:17;25.67;;;16.53;;
7813;SDS011;3952;48.364;16.022;2022-10-13T12:58:54;21.10;;;16.23;;
7813;SDS011;3952;48.364;16.022;2022-10-13T13:01:26;22.83;;;15.90;;
7813;SDS011;3952;48.364;16.022;2022-10-13T13:03:56;19.47;;;15.47;;
7813;SDS011;3952;48.364;16.022;2022-10-13T13:06:36;22.07;;;16.37;;
7813;SDS011;3952;48.364;16.022;2022-10-13T13:09:06;25.73;;;17.83;;
7813;SDS011;3952;48.364;16.022;2022-10-13T13:14:47;28.93;;;18.03;;
7813;SDS011;3952;48.364;16.022;2022-10-13T13:17:21;28.40;;;17.60;;
7813;SDS011;3952;48.364;16.022;2022-10-13T13:19:52;25.23;;;18.20;;
7813;SDS011;3952;48.364;16.022;2022-10-13T13:22:23;27.93;;;18.60;;
7813;SDS011;3952;48.364;16.022;2022-10-13T13:24:50;26.00;;;18.60;;
7813;SDS011;3952;48.364;16.022;2022-10-13T13:27:20;21.80;;;16.93;;
7813;SDS011;3952;48.364;16.022;2022-10-13T13:29:51;25.67;;;18.67;;
7813;SDS011;3952;48.364;16.022;2022-10-13T13:32:20;27.60;;;19.07;;
7813;SDS011;3952;48.364;16.022;2022-10-13T13:34:49;24.63;;;18.10;;
7813;SDS011;3952;48.364;16.022;2022-10-13T13:37:23;28.50;;;18.77;;
7813;SDS011;3952;48.364;16.022;2022-10-13T13:39:54;27.50;;;18.37;;
7813;SDS011;3952;48.364;16.022;2022-10-13T13:42:21;25.53;;;17.03;;
7813;SDS011;3952;48.364;16.022;2022-10-13T13:44:49;26.53;;;18.23;;
7813;SDS011;3952;48.364;16.022;2022-10-13T13:47:17;31.97;;;19.60;;
7813;SDS011;3952;48.364;16.022;2022-10-13T13:49:46;29.43;;;19.83;;
7813;SDS011;3952;48.364;16.022;2022-10-13T13:52:14;26.17;;;19.43;;
7813;SDS011;3952;48.364;16.022;2022-10-13T13:54:43;27.03;;;19.00;;
7813;SDS011;3952;48.364;16.022;2022-10-13T13:57:12;31.33;;;19.47;;
7813;SDS011;3952;48.364;16.022;2022-10-13T13:59:40;32.30;;;22.13;;
7813;SDS011;3952;48.364;16.022;2022-10-13T14:02:11;36.23;;;24.40;;
7813;SDS011;3952;48.364;16.022;2022-10-13T14:04:40;29.77;;;19.60;;
7813;SDS011;3952;48.364;16.022;2022-10-13T14:07:08;23.80;;;18.43;;
7813;SDS011;3952;48.364;16.022;2022-10-13T14:09:36;31.57;;;18.53;;
7813;SDS011;3952;48.364;16.022;2022-10-13T14:12:05;20.73;;;16.73;;
7813;SDS011;3952;48.364;16.022;2022-10-13T14:14:32;25.73;;;18.83;;
7813;SDS011;3952;48.364;16.022;2022-10-13T14:17:00;29.43;;;20.07;;
7813;SDS011;3952;48.364;16.022;2022-10-13T14:19:29;28.17;;;19.40;;
7813;SDS011;3952;48.364;16.022;2022-10-13T14:21:57;25.40;;;18.13;;
7813;SDS011;3952;48.364;16.022;2022-10-13T14:24:25;25.73;;;18.67;;
7813;SDS011;3952;48.364;16.022;2022-10-13T14:26:53;26.60;;;18.23;;
7813;SDS011;3952;48.364;16.022;2022-10-13T14:29:22;29.60;;;19.03;;
7813;SDS011;3952;48.364;16.022;2022-10-13T14:31:49;22.30;;;16.33;;
7813;SDS011;3952;48.364;16.022;2022-10-13T14:34:17;21.43;;;16.20;;
7813;SDS011;3952;48.364;16.022;2022-10-13T14:36:45;22.70;;;17.13;;
7813;SDS011;3952;48.364;16.022;2022-10-13T14:39:12;27.00;;;17.73;;
7813;SDS011;3952;48.364;16.022;2022-10-13T14:41:39;30.87;;;20.73;;
7813;SDS011;3952;48.364;16.022;2022-10-13T14:44:08;25.50;;;19.30;;
7813;SDS011;3952;48.364;16.022;2022-10-13T14:46:38;25.33;;;19.17;;
7813;SDS011;3952;48.364;16.022;2022-10-13T14:49:06;20.83;;;17.67;;
7813;SDS011;3952;48.364;16.022;2022-10-13T14:51:35;22.30;;;18.07;;
7813;SDS011;3952;48.364;16.022;2022-10-13T14:54:02;23.10;;;18.20;;
7813;SDS011;3952;48.364;16.022;2022-10-13T14:56:31;22.83;;;16.93;;
7813;SDS011;3952;48.364;16.022;2022-10-13T14:59:00;24.30;;;18.03;;
7813;SDS011;3952;48.364;16.022;2022-10-13T15:01:28;24.53;;;18.03;;
7813;SDS011;3952;48.364;16.022;2022-10-13T15:03:59;21.77;;;17.03;;
7813;SDS011;3952;48.364;16.022;2022-10-13T15:06:26;25.10;;;18.43;;
7813;SDS011;3952;48.364;16.022;2022-10-13T15:08:53;25.27;;;18.60;;
7813;SDS011;3952;48.364;16.022;2022-10-13T15:11:21;24.03;;;17.73;;
7813;SDS011;3952;48.364;16.022;2022-10-13T15:13:49;27.17;;;18.77;;
7813;SDS011;3952;48.364;16.022;2022-10-13T15:16:16;27.00;;;18.23;;
7813;SDS011;3952;48.364;16.022;2022-10-13T15:18:45;22.50;;;18.43;;
7813;SDS011;3952;48.364;16.022;2022-10-13T15:21:14;31.93;;;18.90;;
7813;SDS011;3952;48.364;16.022;2022-10-13T15:23:42;25.50;;;18.50;;
7813;SDS011;3952;48.364;16.022;2022-10-13T15:26:10;27.80;;;19.60;;
7813;SDS011;3952;48.364;16.022;2022-10-13T15:28:39;25.93;;;18.27;;
7813;SDS011;3952;48.364;16.022;2022-10-13T15:31:07;29.37;;;19.83;;
7813;SDS011;3952;48.364;16.022;2022-10-13T15:33:34;27.77;;;19.60;;
7813;SDS011;3952;48.364;16.022;2022-10-13T15:36:01;26.90;;;18.83;;
7813;SDS011;3952;48.364;16.022;2022-10-13T15:38:30;24.60;;;18.20;;